sensor_id;sensor_type;location;lat;lon;timestamp;P1;durP1;ratioP1;P2;durP2;ratioP2
11247;SDS011;5681;53.316;13.950;2023-02-21T00:02:30;0.40;;;0.40;;
11247;SDS011;5681;53.316;13.950;2023-02-21T00:05:14;0.40;;;0.40;;
11247;SDS011;5681;53.316;13.950;2023-02-21T00:07:58;1.90;;;0.40;;
11247;SDS011;5681;53.316;13.950;2023-02-21T00:10:42;2.97;;;0.57;;
11247;SDS011;5681;53.316;13.950;2023-02-21T00:13:26;1.87;;;0.60;;
11247;SDS011;5681;53.316;13.950;2023-02-21T00:16:14;0.70;;;0.70;;
11247;SDS011;5681;53.316;13.950;2023-02-21T00:19:00;1.38;;;0.52;;
11247;SDS011;5681;53.316;13.950;2023-02-21T00:21:44;1.23;;;0.50;;
11247;SDS011;5681;53.316;13.950;2023-02-21T00:24:28;0.50;;;0.50;;
11247;SDS011;5681;53.316;13.950;2023-02-21T00:27:12;0.75;;;0.43;;
11247;SDS011;5681;53.316;13.950;2023-02-21T00:29:56;0.50;;;0.50;;
11247;SDS011;5681;53.316;13.950;2023-02-21T00:32:40;0.63;;;0.60;;
11247;SDS011;5681;53.316;13.950;2023-02-21T00:35:26;1.83;;;0.63;;
11247;SDS011;5681;53.316;13.950;2023-02-21T00:38:10;3.92;;;0.63;;
11247;SDS011;5681;53.316;13.950;2023-02-21T00:40:54;0.90;;;0.50;;
11247;SDS011;5681;53.316;13.950;2023-02-21T00:43:38;0.82;;;0.40;;
11247;SDS011;5681;53.316;13.950;2023-02-21T00:46:23;0.57;;;0.40;;
11247;SDS011;5681;53.316;13.950;2023-02-21T00:49:07;0.77;;;0.60;;
11247;SDS011;5681;53.316;13.950;2023-02-21T00:51:52;1.13;;;0.68;;
11247;SDS011;5681;53.316;13.950;2023-02-21T00:54:36;1.00;;;0.53;;
11247;SDS011;5681;53.316;13.950;2023-02-21T00:57:20;2.15;;;0.40;;
11247;SDS011;5681;53.316;13.950;2023-02-21T01:00:06;1.30;;;0.50;;
11247;SDS011;5681;53.316;13.950;2023-02-21T01:02:51;0.90;;;0.70;;
11247;SDS011;5681;53.316;13.950;2023-02-21T01:05:35;0.77;;;0.60;;
11247;SDS011;5681;53.316;13.950;2023-02-21T01:08:20;1.52;;;0.65;;
11247;SDS011;5681;53.316;13.950;2023-02-21T01:11:04;0.82;;;0.70;;
11247;SDS011;5681;53.316;13.950;2023-02-21T01:13:48;1.48;;;0.65;;
11247;SDS011;5681;53.316;13.950;2023-02-21T01:16:32;0.52;;;0.45;;
11247;SDS011;5681;53.316;13.950;2023-02-21T01:19:17;1.23;;;0.60;;
11247;SDS011;5681;53.316;13.950;2023-02-21T01:22:01;0.60;;;0.50;;
11247;SDS011;5681;53.316;13.950;2023-02-21T01:24:48;0.57;;;0.57;;
11247;SDS011;5681;53.316;13.950;2023-02-21T01:27:32;0.60;;;0.50;;
11247;SDS011;5681;53.316;13.950;2023-02-21T01:30:16;0.80;;;0.70;;
11247;SDS011;5681;53.316;13.950;2023-02-21T01:33:00;1.58;;;0.50;;
11247;SDS011;5681;53.316;13.950;2023-02-21T01:35:44;1.27;;;0.70;;
11247;SDS011;5681;53.316;13.950;2023-02-21T01:38:28;1.25;;;0.70;;
11247;SDS011;5681;53.316;13.950;2023-02-21T01:41:17;0.40;;;0.40;;
11247;SDS011;5681;53.316;13.950;2023-02-21T01:44:01;0.50;;;0.50;;
11247;SDS011;5681;53.316;13.950;2023-02-21T01:46:47;2.15;;;0.63;;
11247;SDS011;5681;53.316;13.950;2023-02-21T01:49:31;2.05;;;1.02;;
11247;SDS011;5681;53.316;13.950;2023-02-21T01:52:16;0.60;;;0.50;;
11247;SDS011;5681;53.316;13.950;2023-02-21T01:55:00;1.17;;;0.70;;
11247;SDS011;5681;53.316;13.950;2023-02-21T01:57:46;0.60;;;0.60;;
11247;SDS011;5681;53.316;13.950;2023-02-21T02:00:30;1.75;;;0.60;;
11247;SDS011;5681;53.316;13.950;2023-02-21T02:03:16;1.00;;;0.80;;
11247;SDS011;5681;53.316;13.950;2023-02-21T02:06:02;1.13;;;0.60;;
11247;SDS011;5681;53.316;13.950;2023-02-21T02:08:48;0.97;;;0.63;;
11247;SDS011;5681;53.316;13.950;2023-02-21T02:11:37;2.13;;;0.60;;
11247;SDS011;5681;53.316;13.950;2023-02-21T02:14:33;2.30;;;0.80;;
11247;SDS011;5681;53.316;13.950;2023-02-21T02:17:08;4.23;;;0.83;;
11247;SDS011;5681;53.316;13.950;2023-02-21T02:29:30;4.18;;;1.10;;
11247;SDS011;5681;53.316;13.950;2023-02-21T02:35:12;4.72;;;1.17;;
11247;SDS011;5681;53.316;13.950;2023-02-21T02:37:43;3.73;;;1.00;;
11247;SDS011;5681;53.316;13.950;2023-02-21T02:40:15;5.33;;;1.00;;
11247;SDS011;5681;53.316;13.950;2023-02-21T02:42:47;4.68;;;1.00;;
11247;SDS011;5681;53.316;13.950;2023-02-21T02:45:24;9.38;;;1.52;;
11247;SDS011;5681;53.316;13.950;2023-02-21T02:47:54;5.35;;;1.40;;
11247;SDS011;5681;53.316;13.950;2023-02-21T02:50:25;5.17;;;1.13;;
11247;SDS011;5681;53.316;13.950;2023-02-21T02:52:53;5.05;;;1.20;;
11247;SDS011;5681;53.316;13.950;2023-02-21T02:55:23;4.67;;;1.27;;
11247;SDS011;5681;53.316;13.950;2023-02-21T02:57:56;6.70;;;1.60;;
11247;SDS011;5681;53.316;13.950;2023-02-21T03:00:22;4.53;;;1.30;;
11247;SDS011;5681;53.316;13.950;2023-02-21T03:02:52;6.13;;;1.30;;
11247;SDS011;5681;53.316;13.950;2023-02-21T03:05:38;3.93;;;1.20;;
11247;SDS011;5681;53.316;13.950;2023-02-21T03:08:17;7.33;;;1.40;;
11247;SDS011;5681;53.316;13.950;2023-02-21T03:10:47;4.57;;;1.30;;
11247;SDS011;5681;53.316;13.950;2023-02-21T03:13:20;8.60;;;1.40;;
11247;SDS011;5681;53.316;13.950;2023-02-21T03:15:51;10.97;;;1.70;;
11247;SDS011;5681;53.316;13.950;2023-02-21T03:18:23;8.18;;;1.55;;
11247;SDS011;5681;53.316;13.950;2023-02-21T03:20:55;6.18;;;1.10;;
11247;SDS011;5681;53.316;13.950;2023-02-21T03:23:23;5.20;;;1.38;;
11247;SDS011;5681;53.316;13.950;2023-02-21T03:25:52;5.25;;;1.40;;
11247;SDS011;5681;53.316;13.950;2023-02-21T03:28:19;7.90;;;1.40;;
11247;SDS011;5681;53.316;13.950;2023-02-21T03:30:46;6.40;;;1.50;;
11247;SDS011;5681;53.316;13.950;2023-02-21T03:33:14;8.63;;;1.63;;
11247;SDS011;5681;53.316;13.950;2023-02-21T03:35:40;4.78;;;1.23;;
11247;SDS011;5681;53.316;13.950;2023-02-21T03:38:08;5.35;;;1.33;;
11247;SDS011;5681;53.316;13.950;2023-02-21T03:40:35;8.67;;;1.40;;
11247;SDS011;5681;53.316;13.950;2023-02-21T03:43:03;5.93;;;1.30;;
11247;SDS011;5681;53.316;13.950;2023-02-21T03:45:31;6.80;;;1.33;;
11247;SDS011;5681;53.316;13.950;2023-02-21T03:47:57;7.63;;;1.57;;
11247;SDS011;5681;53.316;13.950;2023-02-21T03:50:23;6.10;;;1.30;;
11247;SDS011;5681;53.316;13.950;2023-02-21T03:52:50;5.40;;;1.30;;
11247;SDS011;5681;53.316;13.950;2023-02-21T03:55:17;5.80;;;1.30;;
11247;SDS011;5681;53.316;13.950;2023-02-21T03:57:44;8.67;;;1.50;;
11247;SDS011;5681;53.316;13.950;2023-02-21T04:00:13;7.83;;;1.50;;
11247;SDS011;5681;53.316;13.950;2023-02-21T04:02:40;6.55;;;1.50;;
11247;SDS011;5681;53.316;13.950;2023-02-21T04:05:06;7.53;;;1.57;;
11247;SDS011;5681;53.316;13.950;2023-02-21T04:07:33;9.40;;;1.97;;
11247;SDS011;5681;53.316;13.950;2023-02-21T04:09:59;6.83;;;1.70;;
11247;SDS011;5681;53.316;13.950;2023-02-21T04:12:27;6.97;;;1.40;;
11247;SDS011;5681;53.316;13.950;2023-02-21T04:14:53;9.30;;;2.00;;
11247;SDS011;5681;53.316;13.950;2023-02-21T04:17:22;8.90;;;2.03;;
11247;SDS011;5681;53.316;13.950;2023-02-21T04:19:49;7.53;;;1.63;;
11247;SDS011;5681;53.316;13.950;2023-02-21T04:22:15;8.90;;;1.73;;
11247;SDS011;5681;53.316;13.950;2023-02-21T04:24:41;10.07;;;1.73;;
11247;SDS011;5681;53.316;13.950;2023-02-21T04:27:08;8.70;;;1.60;;
11247;SDS011;5681;53.316;13.950;2023-02-21T04:29:35;9.37;;;2.10;;
11247;SDS011;5681;53.316;13.950;2023-02-21T04:32:02;9.47;;;2.20;;
11247;SDS011;5681;53.316;13.950;2023-02-21T04:34:28;11.10;;;2.50;;
11247;SDS011;5681;53.316;13.950;2023-02-21T04:36:55;12.77;;;2.07;;
11247;SDS011;5681;53.316;13.950;2023-02-21T04:39:21;9.80;;;2.40;;
11247;SDS011;5681;53.316;13.950;2023-02-21T04:41:48;7.53;;;1.53;;
11247;SDS011;5681;53.316;13.950;2023-02-21T04:44:14;10.10;;;2.03;;
11247;SDS011;5681;53.316;13.950;2023-02-21T04:46:43;5.47;;;1.30;;
11247;SDS011;5681;53.316;13.950;2023-02-21T04:49:11;11.50;;;2.47;;
11247;SDS011;5681;53.316;13.950;2023-02-21T04:51:38;9.77;;;2.07;;
11247;SDS011;5681;53.316;13.950;2023-02-21T04:54:04;7.63;;;1.90;;
11247;SDS011;5681;53.316;13.950;2023-02-21T04:56:32;10.20;;;1.93;;
11247;SDS011;5681;53.316;13.950;2023-02-21T04:58:58;8.13;;;2.40;;
11247;SDS011;5681;53.316;13.950;2023-02-21T05:01:26;7.80;;;2.00;;
11247;SDS011;5681;53.316;13.950;2023-02-21T05:03:54;7.23;;;1.67;;
11247;SDS011;5681;53.316;13.950;2023-02-21T05:06:21;8.43;;;1.93;;
11247;SDS011;5681;53.316;13.950;2023-02-21T05:08:48;11.60;;;1.93;;
11247;SDS011;5681;53.316;13.950;2023-02-21T05:11:15;10.37;;;2.10;;
11247;SDS011;5681;53.316;13.950;2023-02-21T05:13:41;8.93;;;1.90;;
11247;SDS011;5681;53.316;13.950;2023-02-21T05:16:08;14.63;;;2.47;;
11247;SDS011;5681;53.316;13.950;2023-02-21T05:18:34;11.77;;;2.20;;
11247;SDS011;5681;53.316;13.950;2023-02-21T05:21:03;11.90;;;2.33;;
11247;SDS011;5681;53.316;13.950;2023-02-21T05:23:30;16.87;;;2.50;;
11247;SDS011;5681;53.316;13.950;2023-02-21T05:26:01;13.13;;;2.20;;
11247;SDS011;5681;53.316;13.950;2023-02-21T05:28:28;8.47;;;2.10;;
11247;SDS011;5681;53.316;13.950;2023-02-21T05:30:54;10.77;;;2.57;;
11247;SDS011;5681;53.316;13.950;2023-02-21T05:33:21;12.93;;;2.73;;
11247;SDS011;5681;53.316;13.950;2023-02-21T05:35:47;14.87;;;3.20;;
11247;SDS011;5681;53.316;13.950;2023-02-21T05:38:15;12.70;;;2.67;;
11247;SDS011;5681;53.316;13.950;2023-02-21T05:40:42;10.73;;;2.40;;
11247;SDS011;5681;53.316;13.950;2023-02-21T05:43:08;17.07;;;2.73;;
11247;SDS011;5681;53.316;13.950;2023-02-21T05:45:35;9.50;;;2.20;;
11247;SDS011;5681;53.316;13.950;2023-02-21T05:48:02;13.20;;;2.57;;
11247;SDS011;5681;53.316;13.950;2023-02-21T05:50:29;16.00;;;2.57;;
11247;SDS011;5681;53.316;13.950;2023-02-21T05:52:56;14.03;;;3.00;;
11247;SDS011;5681;53.316;13.950;2023-02-21T05:55:24;13.47;;;2.77;;
11247;SDS011;5681;53.316;13.950;2023-02-21T05:57:50;15.00;;;2.73;;
11247;SDS011;5681;53.316;13.950;2023-02-21T06:00:18;15.10;;;2.77;;
11247;SDS011;5681;53.316;13.950;2023-02-21T06:02:48;14.27;;;2.90;;
11247;SDS011;5681;53.316;13.950;2023-02-21T06:05:14;15.27;;;2.83;;
11247;SDS011;5681;53.316;13.950;2023-02-21T06:07:41;15.17;;;3.07;;
11247;SDS011;5681;53.316;13.950;2023-02-21T06:10:07;17.83;;;3.03;;
11247;SDS011;5681;53.316;13.950;2023-02-21T06:12:36;11.87;;;2.37;;
11247;SDS011;5681;53.316;13.950;2023-02-21T06:15:02;16.17;;;3.00;;
11247;SDS011;5681;53.316;13.950;2023-02-21T06:17:31;14.00;;;3.23;;
11247;SDS011;5681;53.316;13.950;2023-02-21T06:19:57;24.40;;;3.10;;
11247;SDS011;5681;53.316;13.950;2023-02-21T06:22:23;14.80;;;3.13;;
11247;SDS011;5681;53.316;13.950;2023-02-21T06:24:50;18.83;;;3.70;;
11247;SDS011;5681;53.316;13.950;2023-02-21T06:27:16;12.63;;;2.90;;
11247;SDS011;5681;53.316;13.950;2023-02-21T06:29:44;15.13;;;3.37;;
11247;SDS011;5681;53.316;13.950;2023-02-21T06:32:10;18.47;;;3.60;;
11247;SDS011;5681;53.316;13.950;2023-02-21T06:34:37;15.37;;;4.10;;
11247;SDS011;5681;53.316;13.950;2023-02-21T06:37:03;18.03;;;3.97;;
11247;SDS011;5681;53.316;13.950;2023-02-21T06:39:30;16.90;;;2.70;;
11247;SDS011;5681;53.316;13.950;2023-02-21T06:41:57;18.20;;;3.30;;
11247;SDS011;5681;53.316;13.950;2023-02-21T06:44:23;18.23;;;3.83;;
11247;SDS011;5681;53.316;13.950;2023-02-21T06:46:51;18.57;;;3.33;;
11247;SDS011;5681;53.316;13.950;2023-02-21T06:49:18;16.60;;;3.33;;
11247;SDS011;5681;53.316;13.950;2023-02-21T06:51:45;18.93;;;3.30;;
11247;SDS011;5681;53.316;13.950;2023-02-21T06:54:12;19.80;;;3.47;;
11247;SDS011;5681;53.316;13.950;2023-02-21T06:56:38;23.87;;;3.90;;
11247;SDS011;5681;53.316;13.950;2023-02-21T06:59:05;23.67;;;3.97;;
11247;SDS011;5681;53.316;13.950;2023-02-21T07:01:32;19.77;;;3.80;;
11247;SDS011;5681;53.316;13.950;2023-02-21T07:03:59;24.27;;;4.03;;
11247;SDS011;5681;53.316;13.950;2023-02-21T07:06:26;21.13;;;4.03;;
11247;SDS011;5681;53.316;13.950;2023-02-21T07:08:52;19.80;;;3.63;;
11247;SDS011;5681;53.316;13.950;2023-02-21T07:11:19;17.27;;;3.50;;
11247;SDS011;5681;53.316;13.950;2023-02-21T07:13:46;14.63;;;3.30;;
11247;SDS011;5681;53.316;13.950;2023-02-21T07:16:12;22.27;;;3.97;;
11247;SDS011;5681;53.316;13.950;2023-02-21T07:18:41;19.83;;;3.37;;
11247;SDS011;5681;53.316;13.950;2023-02-21T07:21:09;20.97;;;4.07;;
11247;SDS011;5681;53.316;13.950;2023-02-21T07:23:36;24.90;;;4.07;;
11247;SDS011;5681;53.316;13.950;2023-02-21T07:26:02;21.27;;;3.57;;
11247;SDS011;5681;53.316;13.950;2023-02-21T07:28:29;22.07;;;3.97;;
11247;SDS011;5681;53.316;13.950;2023-02-21T07:30:55;22.40;;;4.00;;
11247;SDS011;5681;53.316;13.950;2023-02-21T07:33:21;27.67;;;4.73;;
11247;SDS011;5681;53.316;13.950;2023-02-21T07:35:48;20.87;;;3.70;;
11247;SDS011;5681;53.316;13.950;2023-02-21T07:38:19;20.83;;;4.07;;
11247;SDS011;5681;53.316;13.950;2023-02-21T07:40:46;18.63;;;3.50;;
11247;SDS011;5681;53.316;13.950;2023-02-21T07:43:12;21.07;;;3.67;;
11247;SDS011;5681;53.316;13.950;2023-02-21T07:45:39;23.13;;;3.90;;
11247;SDS011;5681;53.316;13.950;2023-02-21T07:48:05;24.77;;;4.20;;
11247;SDS011;5681;53.316;13.950;2023-02-21T07:50:31;22.17;;;4.57;;
11247;SDS011;5681;53.316;13.950;2023-02-21T07:52:59;21.87;;;3.80;;
11247;SDS011;5681;53.316;13.950;2023-02-21T07:55:26;21.63;;;3.97;;
11247;SDS011;5681;53.316;13.950;2023-02-21T07:57:53;26.80;;;4.23;;
11247;SDS011;5681;53.316;13.950;2023-02-21T08:00:19;28.83;;;4.43;;
11247;SDS011;5681;53.316;13.950;2023-02-21T08:02:49;28.63;;;4.57;;
11247;SDS011;5681;53.316;13.950;2023-02-21T08:05:15;25.50;;;4.47;;
11247;SDS011;5681;53.316;13.950;2023-02-21T08:07:42;31.83;;;4.67;;
11247;SDS011;5681;53.316;13.950;2023-02-21T08:10:09;23.13;;;4.47;;
11247;SDS011;5681;53.316;13.950;2023-02-21T08:12:39;22.10;;;4.40;;
11247;SDS011;5681;53.316;13.950;2023-02-21T08:15:06;27.27;;;4.17;;
11247;SDS011;5681;53.316;13.950;2023-02-21T08:17:33;22.97;;;5.00;;
11247;SDS011;5681;53.316;13.950;2023-02-21T08:19:59;24.67;;;4.15;;
11247;SDS011;5681;53.316;13.950;2023-02-21T08:22:26;29.57;;;4.50;;
11247;SDS011;5681;53.316;13.950;2023-02-21T08:24:52;25.63;;;4.83;;
11247;SDS011;5681;53.316;13.950;2023-02-21T08:27:19;28.77;;;5.07;;
11247;SDS011;5681;53.316;13.950;2023-02-21T08:29:48;22.77;;;4.87;;
11247;SDS011;5681;53.316;13.950;2023-02-21T08:32:16;26.80;;;4.33;;
11247;SDS011;5681;53.316;13.950;2023-02-21T08:34:43;21.47;;;4.57;;
11247;SDS011;5681;53.316;13.950;2023-02-21T08:37:12;30.93;;;5.10;;
11247;SDS011;5681;53.316;13.950;2023-02-21T08:39:47;29.27;;;5.57;;
11247;SDS011;5681;53.316;13.950;2023-02-21T08:42:17;29.23;;;4.60;;
11247;SDS011;5681;53.316;13.950;2023-02-21T08:44:44;29.30;;;5.43;;
11247;SDS011;5681;53.316;13.950;2023-02-21T08:47:12;27.33;;;4.90;;
11247;SDS011;5681;53.316;13.950;2023-02-21T08:49:42;27.87;;;5.33;;
11247;SDS011;5681;53.316;13.950;2023-02-21T08:52:09;29.70;;;5.40;;
11247;SDS011;5681;53.316;13.950;2023-02-21T08:54:35;37.03;;;6.20;;
11247;SDS011;5681;53.316;13.950;2023-02-21T08:57:02;28.37;;;4.73;;
11247;SDS011;5681;53.316;13.950;2023-02-21T08:59:29;30.27;;;5.50;;
11247;SDS011;5681;53.316;13.950;2023-02-21T09:01:57;31.17;;;5.53;;
11247;SDS011;5681;53.316;13.950;2023-02-21T09:04:25;32.73;;;5.00;;
11247;SDS011;5681;53.316;13.950;2023-02-21T09:06:52;31.83;;;5.47;;
11247;SDS011;5681;53.316;13.950;2023-02-21T09:09:18;22.00;;;4.67;;
11247;SDS011;5681;53.316;13.950;2023-02-21T09:11:46;33.27;;;5.60;;
11247;SDS011;5681;53.316;13.950;2023-02-21T09:14:13;39.57;;;5.70;;
11247;SDS011;5681;53.316;13.950;2023-02-21T09:16:39;24.40;;;5.07;;
11247;SDS011;5681;53.316;13.950;2023-02-21T09:19:07;29.50;;;5.17;;
11247;SDS011;5681;53.316;13.950;2023-02-21T09:21:35;28.27;;;5.30;;
11247;SDS011;5681;53.316;13.950;2023-02-21T09:24:09;22.10;;;5.13;;
11247;SDS011;5681;53.316;13.950;2023-02-21T09:26:36;27.00;;;5.57;;
11247;SDS011;5681;53.316;13.950;2023-02-21T09:29:02;30.00;;;5.53;;
11247;SDS011;5681;53.316;13.950;2023-02-21T09:31:28;25.67;;;5.30;;
11247;SDS011;5681;53.316;13.950;2023-02-21T09:33:55;32.90;;;5.53;;
11247;SDS011;5681;53.316;13.950;2023-02-21T09:36:21;30.80;;;5.43;;
11247;SDS011;5681;53.316;13.950;2023-02-21T09:38:50;31.90;;;5.78;;
11247;SDS011;5681;53.316;13.950;2023-02-21T09:41:16;26.60;;;5.07;;
11247;SDS011;5681;53.316;13.950;2023-02-21T09:43:43;26.60;;;5.43;;
11247;SDS011;5681;53.316;13.950;2023-02-21T09:46:11;23.90;;;5.00;;
11247;SDS011;5681;53.316;13.950;2023-02-21T09:48:39;36.17;;;5.13;;
11247;SDS011;5681;53.316;13.950;2023-02-21T09:51:07;27.20;;;5.30;;
11247;SDS011;5681;53.316;13.950;2023-02-21T09:53:35;38.10;;;5.63;;
11247;SDS011;5681;53.316;13.950;2023-02-21T09:56:06;29.33;;;5.37;;
11247;SDS011;5681;53.316;13.950;2023-02-21T09:58:37;24.93;;;5.50;;
11247;SDS011;5681;53.316;13.950;2023-02-21T10:01:05;27.03;;;5.40;;
11247;SDS011;5681;53.316;13.950;2023-02-21T10:03:43;27.80;;;5.13;;
11247;SDS011;5681;53.316;13.950;2023-02-21T10:06:13;26.73;;;5.17;;
11247;SDS011;5681;53.316;13.950;2023-02-21T10:08:47;34.47;;;6.35;;
11247;SDS011;5681;53.316;13.950;2023-02-21T10:11:21;19.85;;;4.70;;
11247;SDS011;5681;53.316;13.950;2023-02-21T10:13:55;25.23;;;5.30;;
11247;SDS011;5681;53.316;13.950;2023-02-21T10:16:30;40.08;;;5.93;;
11247;SDS011;5681;53.316;13.950;2023-02-21T10:19:01;24.70;;;4.63;;
11247;SDS011;5681;53.316;13.950;2023-02-21T10:21:31;32.15;;;5.93;;
11247;SDS011;5681;53.316;13.950;2023-02-21T10:24:01;26.48;;;4.38;;
11247;SDS011;5681;53.316;13.950;2023-02-21T10:26:33;24.52;;;4.75;;
11247;SDS011;5681;53.316;13.950;2023-02-21T10:29:06;32.13;;;6.25;;
11247;SDS011;5681;53.316;13.950;2023-02-21T10:31:41;28.42;;;5.25;;
11247;SDS011;5681;53.316;13.950;2023-02-21T10:34:17;27.30;;;5.47;;
11247;SDS011;5681;53.316;13.950;2023-02-21T10:36:47;25.95;;;5.32;;
11247;SDS011;5681;53.316;13.950;2023-02-21T10:39:16;27.67;;;6.00;;
11247;SDS011;5681;53.316;13.950;2023-02-21T10:41:44;31.20;;;5.28;;
11247;SDS011;5681;53.316;13.950;2023-02-21T10:44:12;29.20;;;5.03;;
11247;SDS011;5681;53.316;13.950;2023-02-21T10:46:41;27.70;;;5.07;;
11247;SDS011;5681;53.316;13.950;2023-02-21T10:49:19;26.13;;;4.53;;
11247;SDS011;5681;53.316;13.950;2023-02-21T10:51:52;35.08;;;5.78;;
11247;SDS011;5681;53.316;13.950;2023-02-21T10:54:29;26.48;;;5.05;;
11247;SDS011;5681;53.316;13.950;2023-02-21T10:56:57;31.33;;;5.10;;
11247;SDS011;5681;53.316;13.950;2023-02-21T10:59:25;22.92;;;5.03;;
11247;SDS011;5681;53.316;13.950;2023-02-21T11:01:53;23.90;;;4.78;;
11247;SDS011;5681;53.316;13.950;2023-02-21T11:04:24;26.67;;;5.13;;
11247;SDS011;5681;53.316;13.950;2023-02-21T11:06:54;20.73;;;4.70;;
11247;SDS011;5681;53.316;13.950;2023-02-21T11:09:29;24.63;;;5.15;;
11247;SDS011;5681;53.316;13.950;2023-02-21T11:12:03;21.77;;;4.63;;
11247;SDS011;5681;53.316;13.950;2023-02-21T11:14:32;28.25;;;4.78;;
11247;SDS011;5681;53.316;13.950;2023-02-21T11:17:06;27.77;;;5.38;;
11247;SDS011;5681;53.316;13.950;2023-02-21T11:19:42;26.58;;;4.20;;
11247;SDS011;5681;53.316;13.950;2023-02-21T11:22:09;30.58;;;4.72;;
11247;SDS011;5681;53.316;13.950;2023-02-21T11:24:43;21.88;;;4.63;;
11247;SDS011;5681;53.316;13.950;2023-02-21T11:27:12;21.13;;;4.47;;
11247;SDS011;5681;53.316;13.950;2023-02-21T11:29:40;22.48;;;5.10;;
11247;SDS011;5681;53.316;13.950;2023-02-21T11:32:10;25.23;;;4.97;;
11247;SDS011;5681;53.316;13.950;2023-02-21T11:34:38;23.73;;;4.78;;
11247;SDS011;5681;53.316;13.950;2023-02-21T11:37:12;25.98;;;5.75;;
11247;SDS011;5681;53.316;13.950;2023-02-21T11:39:39;29.38;;;5.60;;
11247;SDS011;5681;53.316;13.950;2023-02-21T11:42:23;31.52;;;5.50;;
11247;SDS011;5681;53.316;13.950;2023-02-21T11:45:01;27.38;;;4.97;;
11247;SDS011;5681;53.316;13.950;2023-02-21T11:47:36;27.88;;;5.40;;
11247;SDS011;5681;53.316;13.950;2023-02-21T11:50:06;27.55;;;4.93;;
11247;SDS011;5681;53.316;13.950;2023-02-21T11:52:35;24.45;;;5.22;;
11247;SDS011;5681;53.316;13.950;2023-02-21T11:55:07;32.85;;;5.70;;
11247;SDS011;5681;53.316;13.950;2023-02-21T11:57:41;24.65;;;4.50;;
11247;SDS011;5681;53.316;13.950;2023-02-21T12:00:13;29.15;;;4.75;;
11247;SDS011;5681;53.316;13.950;2023-02-21T12:02:51;25.48;;;5.65;;
11247;SDS011;5681;53.316;13.950;2023-02-21T12:05:30;28.50;;;5.07;;
11247;SDS011;5681;53.316;13.950;2023-02-21T12:10:49;28.77;;;5.47;;
11247;SDS011;5681;53.316;13.950;2023-02-21T12:13:28;24.95;;;4.80;;
11247;SDS011;5681;53.316;13.950;2023-02-21T12:16:00;21.48;;;4.50;;
11247;SDS011;5681;53.316;13.950;2023-02-21T12:18:32;29.85;;;5.35;;
11247;SDS011;5681;53.316;13.950;2023-02-21T12:21:07;27.60;;;5.30;;
11247;SDS011;5681;53.316;13.950;2023-02-21T12:23:43;25.65;;;4.57;;
11247;SDS011;5681;53.316;13.950;2023-02-21T12:26:45;30.08;;;5.15;;
11247;SDS011;5681;53.316;13.950;2023-02-21T12:29:19;26.50;;;5.95;;
11247;SDS011;5681;53.316;13.950;2023-02-21T12:31:59;25.15;;;4.95;;
11247;SDS011;5681;53.316;13.950;2023-02-21T12:34:36;23.42;;;4.65;;
11247;SDS011;5681;53.316;13.950;2023-02-21T12:37:12;22.25;;;4.55;;
11247;SDS011;5681;53.316;13.950;2023-02-21T12:39:55;24.88;;;5.13;;
11247;SDS011;5681;53.316;13.950;2023-02-21T12:42:34;23.52;;;4.93;;
11247;SDS011;5681;53.316;13.950;2023-02-21T12:45:17;26.67;;;4.82;;
11247;SDS011;5681;53.316;13.950;2023-02-21T12:47:50;28.98;;;5.72;;
11247;SDS011;5681;53.316;13.950;2023-02-21T12:50:22;26.10;;;4.57;;
11247;SDS011;5681;53.316;13.950;2023-02-21T12:52:52;23.38;;;4.47;;
11247;SDS011;5681;53.316;13.950;2023-02-21T12:55:28;28.40;;;5.30;;
11247;SDS011;5681;53.316;13.950;2023-02-21T12:57:58;26.83;;;4.68;;
11247;SDS011;5681;53.316;13.950;2023-02-21T13:00:29;23.77;;;4.43;;
11247;SDS011;5681;53.316;13.950;2023-02-21T13:02:59;30.92;;;5.25;;
11247;SDS011;5681;53.316;13.950;2023-02-21T13:05:32;25.70;;;4.78;;
11247;SDS011;5681;53.316;13.950;2023-02-21T13:08:04;26.45;;;4.93;;
11247;SDS011;5681;53.316;13.950;2023-02-21T13:10:48;34.17;;;4.95;;
11247;SDS011;5681;53.316;13.950;2023-02-21T13:13:17;19.63;;;3.80;;
11247;SDS011;5681;53.316;13.950;2023-02-21T13:15:48;24.92;;;4.40;;
11247;SDS011;5681;53.316;13.950;2023-02-21T13:18:18;20.17;;;4.82;;
11247;SDS011;5681;53.316;13.950;2023-02-21T13:20:48;21.42;;;5.07;;
11247;SDS011;5681;53.316;13.950;2023-02-21T13:26:30;27.67;;;4.85;;
11247;SDS011;5681;53.316;13.950;2023-02-21T13:29:03;23.38;;;4.78;;
11247;SDS011;5681;53.316;13.950;2023-02-21T13:31:41;23.27;;;4.78;;
11247;SDS011;5681;53.316;13.950;2023-02-21T13:34:10;25.17;;;4.63;;
11247;SDS011;5681;53.316;13.950;2023-02-21T13:36:39;23.10;;;4.25;;
11247;SDS011;5681;53.316;13.950;2023-02-21T13:39:10;21.10;;;4.30;;
11247;SDS011;5681;53.316;13.950;2023-02-21T13:41:39;23.08;;;4.70;;
11247;SDS011;5681;53.316;13.950;2023-02-21T13:44:08;28.00;;;4.70;;
11247;SDS011;5681;53.316;13.950;2023-02-21T13:52:36;23.10;;;4.90;;
11247;SDS011;5681;53.316;13.950;2023-02-21T13:55:21;24.05;;;4.50;;
11247;SDS011;5681;53.316;13.950;2023-02-21T14:07:11;15.85;;;3.67;;
11247;SDS011;5681;53.316;13.950;2023-02-21T14:09:38;24.17;;;4.50;;
11247;SDS011;5681;53.316;13.950;2023-02-21T14:12:06;23.40;;;4.35;;
11247;SDS011;5681;53.316;13.950;2023-02-21T14:14:33;27.13;;;4.97;;
11247;SDS011;5681;53.316;13.950;2023-02-21T14:17:04;22.95;;;3.95;;
11247;SDS011;5681;53.316;13.950;2023-02-21T14:19:32;25.10;;;5.35;;
11247;SDS011;5681;53.316;13.950;2023-02-21T14:22:02;22.20;;;4.90;;
11247;SDS011;5681;53.316;13.950;2023-02-21T14:24:33;21.92;;;5.07;;
11247;SDS011;5681;53.316;13.950;2023-02-21T14:27:02;23.05;;;3.92;;
11247;SDS011;5681;53.316;13.950;2023-02-21T14:29:30;23.13;;;4.20;;
11247;SDS011;5681;53.316;13.950;2023-02-21T14:34:41;23.63;;;4.88;;
11247;SDS011;5681;53.316;13.950;2023-02-21T14:37:19;19.77;;;4.35;;
11247;SDS011;5681;53.316;13.950;2023-02-21T14:39:51;22.40;;;4.85;;
11247;SDS011;5681;53.316;13.950;2023-02-21T14:45:14;24.60;;;4.68;;
11247;SDS011;5681;53.316;13.950;2023-02-21T14:47:58;24.42;;;4.10;;
11247;SDS011;5681;53.316;13.950;2023-02-21T14:50:31;20.52;;;4.07;;
11247;SDS011;5681;53.316;13.950;2023-02-21T14:53:10;23.73;;;4.10;;
11247;SDS011;5681;53.316;13.950;2023-02-21T15:01:57;24.10;;;4.40;;
11247;SDS011;5681;53.316;13.950;2023-02-21T15:04:36;21.92;;;4.30;;
11247;SDS011;5681;53.316;13.950;2023-02-21T15:07:15;25.80;;;4.43;;
11247;SDS011;5681;53.316;13.950;2023-02-21T15:09:43;19.30;;;5.03;;
11247;SDS011;5681;53.316;13.950;2023-02-21T15:12:12;19.77;;;5.30;;
11247;SDS011;5681;53.316;13.950;2023-02-21T15:14:45;19.50;;;3.95;;
11247;SDS011;5681;53.316;13.950;2023-02-21T15:17:16;23.65;;;4.35;;
11247;SDS011;5681;53.316;13.950;2023-02-21T15:19:43;22.92;;;4.70;;
11247;SDS011;5681;53.316;13.950;2023-02-21T15:22:21;23.05;;;5.45;;
11247;SDS011;5681;53.316;13.950;2023-02-21T15:27:50;21.70;;;3.88;;
11247;SDS011;5681;53.316;13.950;2023-02-21T15:30:23;22.08;;;4.60;;
11247;SDS011;5681;53.316;13.950;2023-02-21T15:32:53;25.77;;;4.10;;
11247;SDS011;5681;53.316;13.950;2023-02-21T15:35:24;17.10;;;4.25;;
11247;SDS011;5681;53.316;13.950;2023-02-21T15:37:52;19.70;;;4.78;;
11247;SDS011;5681;53.316;13.950;2023-02-21T15:40:20;29.05;;;5.28;;
11247;SDS011;5681;53.316;13.950;2023-02-21T15:42:48;23.98;;;4.22;;
11247;SDS011;5681;53.316;13.950;2023-02-21T15:45:17;24.65;;;4.72;;
11247;SDS011;5681;53.316;13.950;2023-02-21T15:47:46;26.08;;;5.05;;
11247;SDS011;5681;53.316;13.950;2023-02-21T15:50:15;27.45;;;4.95;;
11247;SDS011;5681;53.316;13.950;2023-02-21T15:52:44;25.52;;;5.03;;
11247;SDS011;5681;53.316;13.950;2023-02-21T15:55:14;28.17;;;5.60;;